sensor_id;sensor_type;location;lat;lon;timestamp;pressure;altitude;pressure_sealevel;temperature;humidity
43364;BME280;40636;52.424;-1.948;2024-03-23T00:53:12;99920.69;;;4.75;74.49
43364;BME280;40636;52.424;-1.948;2024-03-23T00:55:38;99920.69;;;4.73;74.69
43364;BME280;40636;52.424;-1.948;2024-03-23T00:58:03;99921.53;;;4.72;74.70
43364;BME280;40636;52.424;-1.948;2024-03-23T01:00:29;99919.78;;;4.71;74.54
43364;BME280;40636;52.424;-1.948;2024-03-23T01:02:56;99914.63;;;4.70;74.90
43364;BME280;40636;52.424;-1.948;2024-03-23T01:05:21;99905.19;;;4.69;74.77
43364;BME280;40636;52.424;-1.948;2024-03-23T01:07:47;99905.13;;;4.66;74.79
43364;BME280;40636;52.424;-1.948;2024-03-23T01:10:13;99911.97;;;4.64;74.70
43364;BME280;40636;52.424;-1.948;2024-03-23T01:12:39;99910.25;;;4.64;74.49
43364;BME280;40636;52.424;-1.948;2024-03-23T01:15:05;99909.41;;;4.64;74.69
43364;BME280;40636;52.424;-1.948;2024-03-23T01:17:30;99895.66;;;4.63;74.99
43364;BME280;40636;52.424;-1.948;2024-03-23T01:19:56;99899.06;;;4.62;74.75
43364;BME280;40636;52.424;-1.948;2024-03-23T01:22:22;99896.44;;;4.59;74.71
43364;BME280;40636;52.424;-1.948;2024-03-23T01:24:47;99897.28;;;4.58;75.07
43364;BME280;40636;52.424;-1.948;2024-03-23T01:27:13;99898.13;;;4.57;74.88
43364;BME280;40636;52.424;-1.948;2024-03-23T01:29:40;99901.56;;;4.58;74.94
43364;BME280;40636;52.424;-1.948;2024-03-23T01:32:06;99892.13;;;4.57;74.83
43364;BME280;40636;52.424;-1.948;2024-03-23T01:34:32;99890.34;;;4.53;74.71
43364;BME280;40636;52.424;-1.948;2024-03-23T01:36:58;99888.66;;;4.55;74.83
43364;BME280;40636;52.424;-1.948;2024-03-23T01:39:24;99880.06;;;4.53;74.94
43364;BME280;40636;52.424;-1.948;2024-03-23T01:41:50;99877.47;;;4.51;74.91
43364;BME280;40636;52.424;-1.948;2024-03-23T01:44:16;99876.59;;;4.49;74.97
43364;BME280;40636;52.424;-1.948;2024-03-23T01:46:43;99871.44;;;4.49;75.24
43364;BME280;40636;52.424;-1.948;2024-03-23T01:49:10;99864.56;;;4.48;75.11
43364;BME280;40636;52.424;-1.948;2024-03-23T01:51:36;99866.28;;;4.48;74.83
43364;BME280;40636;52.424;-1.948;2024-03-23T01:54:03;99866.28;;;4.48;75.21
43364;BME280;40636;52.424;-1.948;2024-03-23T01:56:33;99857.69;;;4.45;74.97
43364;BME280;40636;52.424;-1.948;2024-03-23T01:59:05;99859.38;;;4.45;74.66
43364;BME280;40636;52.424;-1.948;2024-03-23T02:01:32;99850.75;;;4.41;75.05
43364;BME280;40636;52.424;-1.948;2024-03-23T02:03:58;99845.63;;;4.41;75.42
43364;BME280;40636;52.424;-1.948;2024-03-23T02:06:24;99847.28;;;4.38;74.98
43364;BME280;40636;52.424;-1.948;2024-03-23T02:08:51;99849.81;;;4.35;75.33
43364;BME280;40636;52.424;-1.948;2024-03-23T02:11:17;99840.41;;;4.35;75.19
43364;BME280;40636;52.424;-1.948;2024-03-23T02:13:42;99843.78;;;4.33;75.44
43364;BME280;40636;52.424;-1.948;2024-03-23T02:16:08;99844.66;;;4.33;75.22
43364;BME280;40636;52.424;-1.948;2024-03-23T02:18:34;99837.78;;;4.32;75.28
43364;BME280;40636;52.424;-1.948;2024-03-23T02:21:00;99833.44;;;4.28;75.75
43364;BME280;40636;52.424;-1.948;2024-03-23T02:23:26;99836.88;;;4.27;75.49
43364;BME280;40636;52.424;-1.948;2024-03-23T02:25:52;99827.41;;;4.26;75.79
43364;BME280;40636;52.424;-1.948;2024-03-23T02:28:19;99824.81;;;4.25;75.54
43364;BME280;40636;52.424;-1.948;2024-03-23T02:30:45;99832.53;;;4.23;75.87
43364;BME280;40636;52.424;-1.948;2024-03-23T02:33:10;99833.34;;;4.21;75.93
43364;BME280;40636;52.424;-1.948;2024-03-23T02:35:36;99829.94;;;4.22;75.86
43364;BME280;40636;52.424;-1.948;2024-03-23T02:38:02;99833.38;;;4.22;75.95
43364;BME280;40636;52.424;-1.948;2024-03-23T02:40:28;99835.94;;;4.22;75.76
43364;BME280;40636;52.424;-1.948;2024-03-23T02:42:54;99835.94;;;4.22;75.97
43364;BME280;40636;52.424;-1.948;2024-03-23T02:45:20;99829.94;;;4.22;75.40
43364;BME280;40636;52.424;-1.948;2024-03-23T02:47:46;99828.19;;;4.21;75.62
43364;BME280;40636;52.424;-1.948;2024-03-23T02:50:12;99816.16;;;4.18;75.47
43364;BME280;40636;52.424;-1.948;2024-03-23T02:52:37;99812.75;;;4.18;75.49
43364;BME280;40636;52.424;-1.948;2024-03-23T02:55:04;99811.03;;;4.18;75.25
43364;BME280;40636;52.424;-1.948;2024-03-23T02:57:30;99807.59;;;4.18;75.57
43364;BME280;40636;52.424;-1.948;2024-03-23T02:59:56;99811.00;;;4.15;75.63
43364;BME280;40636;52.424;-1.948;2024-03-23T03:02:22;99807.53;;;4.13;75.67
43364;BME280;40636;52.424;-1.948;2024-03-23T03:04:47;99814.38;;;4.12;75.60
43364;BME280;40636;52.424;-1.948;2024-03-23T03:07:14;99806.66;;;4.11;75.78
43364;BME280;40636;52.424;-1.948;2024-03-23T03:09:39;99802.38;;;4.11;75.70
43364;BME280;40636;52.424;-1.948;2024-03-23T03:12:06;99809.22;;;4.11;76.04
43364;BME280;40636;52.424;-1.948;2024-03-23T03:14:32;99801.47;;;4.09;75.70
43364;BME280;40636;52.424;-1.948;2024-03-23T03:16:58;99802.31;;;4.08;75.76
43364;BME280;40636;52.424;-1.948;2024-03-23T03:19:23;99805.75;;;4.09;75.60
43364;BME280;40636;52.424;-1.948;2024-03-23T03:21:49;99801.47;;;4.08;75.83
43364;BME280;40636;52.424;-1.948;2024-03-23T03:24:16;99802.31;;;4.08;75.65
43364;BME280;40636;52.424;-1.948;2024-03-23T03:26:42;99802.31;;;4.08;75.52
43364;BME280;40636;52.424;-1.948;2024-03-23T03:29:08;99798.91;;;4.08;75.61
43364;BME280;40636;52.424;-1.948;2024-03-23T03:31:34;99796.31;;;4.08;75.45
43364;BME280;40636;52.424;-1.948;2024-03-23T03:34:00;99786.91;;;4.08;75.81
43364;BME280;40636;52.424;-1.948;2024-03-23T03:36:25;99788.63;;;4.09;75.58
43364;BME280;40636;52.424;-1.948;2024-03-23T03:38:51;99793.78;;;4.09;75.65
43364;BME280;40636;52.424;-1.948;2024-03-23T03:41:18;99780.91;;;4.08;75.48
43364;BME280;40636;52.424;-1.948;2024-03-23T03:43:44;99770.59;;;4.06;75.33
43364;BME280;40636;52.424;-1.948;2024-03-23T03:46:09;99763.75;;;4.05;75.66
43364;BME280;40636;52.424;-1.948;2024-03-23T03:48:36;99767.16;;;4.06;75.21
43364;BME280;40636;52.424;-1.948;2024-03-23T03:51:02;99771.44;;;4.05;75.34
43364;BME280;40636;52.424;-1.948;2024-03-23T03:53:28;99768.81;;;4.04;75.50
43364;BME280;40636;52.424;-1.948;2024-03-23T03:55:54;99759.38;;;4.01;75.46
43364;BME280;40636;52.424;-1.948;2024-03-23T03:58:20;99766.22;;;4.01;75.40
43364;BME280;40636;52.424;-1.948;2024-03-23T04:00:45;99763.63;;;4.01;76.06
43364;BME280;40636;52.424;-1.948;2024-03-23T04:03:11;99759.34;;;4.00;75.76
43364;BME280;40636;52.424;-1.948;2024-03-23T04:05:37;99749.03;;;3.97;75.51
43364;BME280;40636;52.424;-1.948;2024-03-23T04:08:03;99754.19;;;3.98;75.88
43364;BME280;40636;52.424;-1.948;2024-03-23T04:10:30;99754.19;;;4.00;75.67
43364;BME280;40636;52.424;-1.948;2024-03-23T04:12:55;99755.09;;;4.02;75.61
43364;BME280;40636;52.424;-1.948;2024-03-23T04:15:21;99757.66;;;4.02;75.21
43364;BME280;40636;52.424;-1.948;2024-03-23T04:17:47;99751.66;;;4.01;75.32
43364;BME280;40636;52.424;-1.948;2024-03-23T04:20:13;99752.53;;;4.02;75.51
43364;BME280;40636;52.424;-1.948;2024-03-23T04:22:45;99742.22;;;4.00;75.71
43364;BME280;40636;52.424;-1.948;2024-03-23T04:25:11;99746.50;;;4.00;75.58
43364;BME280;40636;52.424;-1.948;2024-03-23T04:27:37;99741.34;;;4.00;75.89
43364;BME280;40636;52.424;-1.948;2024-03-23T04:30:03;99740.47;;;3.98;75.81
43364;BME280;40636;52.424;-1.948;2024-03-23T04:32:35;99733.56;;;3.94;75.40
43364;BME280;40636;52.424;-1.948;2024-03-23T04:35:00;99737.81;;;3.92;75.98
43364;BME280;40636;52.424;-1.948;2024-03-23T04:37:26;99729.22;;;3.90;75.47
43364;BME280;40636;52.424;-1.948;2024-03-23T04:39:52;99741.16;;;3.86;75.60
43364;BME280;40636;52.424;-1.948;2024-03-23T04:42:18;99735.16;;;3.86;75.63
43364;BME280;40636;52.424;-1.948;2024-03-23T04:44:43;99730.00;;;3.84;75.85
43364;BME280;40636;52.424;-1.948;2024-03-23T04:47:10;99726.56;;;3.82;76.39
43364;BME280;40636;52.424;-1.948;2024-03-23T04:49:36;99722.25;;;3.79;75.96
43364;BME280;40636;52.424;-1.948;2024-03-23T04:52:05;99720.53;;;3.80;76.62
43364;BME280;40636;52.424;-1.948;2024-03-23T04:54:31;99723.97;;;3.80;76.46
43364;BME280;40636;52.424;-1.948;2024-03-23T04:56:59;99723.97;;;3.80;76.61
43364;BME280;40636;52.424;-1.948;2024-03-23T04:59:25;99727.41;;;3.81;76.09
43364;BME280;40636;52.424;-1.948;2024-03-23T05:01:51;99724.81;;;3.81;76.10
43364;BME280;40636;52.424;-1.948;2024-03-23T05:04:17;99727.41;;;3.83;76.45
43364;BME280;40636;52.424;-1.948;2024-03-23T05:06:43;99724.91;;;3.86;76.59
43364;BME280;40636;52.424;-1.948;2024-03-23T05:09:09;99718.09;;;3.89;76.71
43364;BME280;40636;52.424;-1.948;2024-03-23T05:11:38;99729.28;;;3.93;76.32
43364;BME280;40636;52.424;-1.948;2024-03-23T05:14:04;99715.63;;;3.97;76.50
43364;BME280;40636;52.424;-1.948;2024-03-23T05:16:30;99720.78;;;3.98;76.28
43364;BME280;40636;52.424;-1.948;2024-03-23T05:18:56;99725.97;;;4.01;76.38
43364;BME280;40636;52.424;-1.948;2024-03-23T05:21:21;99723.44;;;4.04;76.43
43364;BME280;40636;52.424;-1.948;2024-03-23T05:23:47;99729.47;;;4.06;76.38
43364;BME280;40636;52.424;-1.948;2024-03-23T05:26:14;99717.50;;;4.07;76.08
43364;BME280;40636;52.424;-1.948;2024-03-23T05:28:40;99713.25;;;4.09;76.48
43364;BME280;40636;52.424;-1.948;2024-03-23T05:31:05;99697.81;;;4.07;76.17
43364;BME280;40636;52.424;-1.948;2024-03-23T05:33:31;99712.38;;;4.08;76.01
43364;BME280;40636;52.424;-1.948;2024-03-23T05:35:58;99706.34;;;4.06;76.09
43364;BME280;40636;52.424;-1.948;2024-03-23T05:38:24;99697.78;;;4.06;76.08
43364;BME280;40636;52.424;-1.948;2024-03-23T05:40:58;99693.44;;;4.03;75.82
43364;BME280;40636;52.424;-1.948;2024-03-23T05:43:24;99696.84;;;4.02;75.71
43364;BME280;40636;52.424;-1.948;2024-03-23T05:45:53;99703.69;;;4.02;75.87
43364;BME280;40636;52.424;-1.948;2024-03-23T05:48:19;99698.53;;;4.00;75.63
43364;BME280;40636;52.424;-1.948;2024-03-23T05:50:45;99695.09;;;4.00;76.12
43364;BME280;40636;52.424;-1.948;2024-03-23T05:53:10;99703.66;;;3.99;76.14
43364;BME280;40636;52.424;-1.948;2024-03-23T05:55:38;99704.50;;;3.98;75.96
43364;BME280;40636;52.424;-1.948;2024-03-23T05:58:04;99701.94;;;3.98;76.01
43364;BME280;40636;52.424;-1.948;2024-03-23T06:00:29;99694.22;;;3.98;75.87
43364;BME280;40636;52.424;-1.948;2024-03-23T06:02:55;99695.94;;;3.97;76.04
43364;BME280;40636;52.424;-1.948;2024-03-23T06:05:21;99696.78;;;3.98;76.28
43364;BME280;40636;52.424;-1.948;2024-03-23T06:07:46;99690.81;;;4.00;75.96
43364;BME280;40636;52.424;-1.948;2024-03-23T06:10:12;99675.44;;;4.02;76.03
43364;BME280;40636;52.424;-1.948;2024-03-23T06:12:38;99682.28;;;4.03;75.68
43364;BME280;40636;52.424;-1.948;2024-03-23T06:15:04;99683.16;;;4.03;75.54
43364;BME280;40636;52.424;-1.948;2024-03-23T06:17:30;99680.59;;;4.03;75.79
43364;BME280;40636;52.424;-1.948;2024-03-23T06:19:56;99678.06;;;4.05;75.42
43364;BME280;40636;52.424;-1.948;2024-03-23T06:22:22;99670.38;;;4.06;75.78
43364;BME280;40636;52.424;-1.948;2024-03-23T06:24:48;99672.97;;;4.08;75.64
43364;BME280;40636;52.424;-1.948;2024-03-23T06:27:14;99679.81;;;4.09;76.17
43364;BME280;40636;52.424;-1.948;2024-03-23T06:29:39;99686.72;;;4.11;75.75
43364;BME280;40636;52.424;-1.948;2024-03-23T06:32:05;99677.28;;;4.10;75.46
43364;BME280;40636;52.424;-1.948;2024-03-23T06:34:31;99677.31;;;4.13;75.53
43364;BME280;40636;52.424;-1.948;2024-03-23T06:36:57;99675.63;;;4.17;75.93
43364;BME280;40636;52.424;-1.948;2024-03-23T06:39:22;99669.66;;;4.18;75.42
43364;BME280;40636;52.424;-1.948;2024-03-23T06:41:52;99676.53;;;4.19;75.83
43364;BME280;40636;52.424;-1.948;2024-03-23T06:44:19;99673.09;;;4.20;76.11
43364;BME280;40636;52.424;-1.948;2024-03-23T06:46:45;99673.13;;;4.23;75.71
43364;BME280;40636;52.424;-1.948;2024-03-23T06:49:11;99683.50;;;4.29;75.52
43364;BME280;40636;52.424;-1.948;2024-03-23T06:51:37;99686.13;;;4.35;75.61
43364;BME280;40636;52.424;-1.948;2024-03-23T06:54:03;99686.19;;;4.41;75.56
43364;BME280;40636;52.424;-1.948;2024-03-23T06:56:29;99685.38;;;4.45;75.21
43364;BME280;40636;52.424;-1.948;2024-03-23T06:58:56;99682.00;;;4.50;75.39
43364;BME280;40636;52.424;-1.948;2024-03-23T07:01:22;99676.91;;;4.56;75.44
43364;BME280;40636;52.424;-1.948;2024-03-23T07:03:47;99679.50;;;4.59;75.42
43364;BME280;40636;52.424;-1.948;2024-03-23T07:06:13;99669.31;;;4.63;75.34
43364;BME280;40636;52.424;-1.948;2024-03-23T07:08:39;99663.31;;;4.66;75.25
43364;BME280;40636;52.424;-1.948;2024-03-23T07:11:05;99665.06;;;4.70;75.15
43364;BME280;40636;52.424;-1.948;2024-03-23T07:13:31;99670.25;;;4.73;75.14
43364;BME280;40636;52.424;-1.948;2024-03-23T07:15:56;99663.44;;;4.78;75.25
43364;BME280;40636;52.424;-1.948;2024-03-23T07:18:23;99665.19;;;4.82;74.88
43364;BME280;40636;52.424;-1.948;2024-03-23T07:20:56;99661.78;;;4.86;74.38
43364;BME280;40636;52.424;-1.948;2024-03-23T07:23:24;99657.50;;;4.87;74.68
43364;BME280;40636;52.424;-1.948;2024-03-23T07:26:04;99642.94;;;4.89;74.59
43364;BME280;40636;52.424;-1.948;2024-03-23T07:28:33;99660.09;;;4.90;74.79
43364;BME280;40636;52.424;-1.948;2024-03-23T07:31:08;99649.81;;;4.91;74.25
43364;BME280;40636;52.424;-1.948;2024-03-23T07:33:35;99658.44;;;4.95;74.16
43364;BME280;40636;52.424;-1.948;2024-03-23T07:36:01;99651.63;;;5.01;74.28
43364;BME280;40636;52.424;-1.948;2024-03-23T07:38:31;99658.53;;;5.08;74.20
43364;BME280;40636;52.424;-1.948;2024-03-23T07:41:09;99658.59;;;5.16;73.93
43364;BME280;40636;52.424;-1.948;2024-03-23T07:43:38;99663.84;;;5.25;73.80
43364;BME280;40636;52.424;-1.948;2024-03-23T07:46:04;99662.19;;;5.33;73.29
43364;BME280;40636;52.424;-1.948;2024-03-23T07:48:30;99656.25;;;5.44;73.21
43364;BME280;40636;52.424;-1.948;2024-03-23T07:51:03;99652.03;;;5.56;72.93
43364;BME280;40636;52.424;-1.948;2024-03-23T07:53:33;99656.34;;;5.65;72.70
43364;BME280;40636;52.424;-1.948;2024-03-23T07:56:08;99646.94;;;5.71;72.25
43364;BME280;40636;52.424;-1.948;2024-03-23T07:58:34;99648.75;;;5.82;72.24
43364;BME280;40636;52.424;-1.948;2024-03-23T08:01:07;99645.38;;;5.92;71.97
43364;BME280;40636;52.424;-1.948;2024-03-23T08:03:34;99631.66;;;6.02;71.74
43364;BME280;40636;52.424;-1.948;2024-03-23T08:06:20;99641.16;;;6.15;71.67
43364;BME280;40636;52.424;-1.948;2024-03-23T08:08:50;99636.03;;;6.27;71.55
43364;BME280;40636;52.424;-1.948;2024-03-23T08:11:16;99635.19;;;6.34;71.33
43364;BME280;40636;52.424;-1.948;2024-03-23T08:13:45;99618.91;;;6.42;71.14
43364;BME280;40636;52.424;-1.948;2024-03-23T08:16:10;99629.22;;;6.45;70.16
43364;BME280;40636;52.424;-1.948;2024-03-23T08:18:37;99630.09;;;6.44;70.37
43364;BME280;40636;52.424;-1.948;2024-03-23T08:21:04;99630.94;;;6.41;70.40
43364;BME280;40636;52.424;-1.948;2024-03-23T08:23:32;99625.78;;;6.41;70.23
43364;BME280;40636;52.424;-1.948;2024-03-23T08:26:22;99617.19;;;6.41;70.07
43364;BME280;40636;52.424;-1.948;2024-03-23T08:28:48;99603.44;;;6.46;70.46
43364;BME280;40636;52.424;-1.948;2024-03-23T08:31:14;99611.19;;;6.54;70.37
43364;BME280;40636;52.424;-1.948;2024-03-23T08:33:43;99609.47;;;6.65;70.54
43364;BME280;40636;52.424;-1.948;2024-03-23T08:36:09;99603.47;;;6.75;70.62
43364;BME280;40636;52.424;-1.948;2024-03-23T08:38:38;99605.16;;;6.88;70.54
43364;BME280;40636;52.424;-1.948;2024-03-23T08:41:08;99600.88;;;7.01;69.89
43364;BME280;40636;52.424;-1.948;2024-03-23T08:43:38;99601.75;;;7.08;69.55
43364;BME280;40636;52.424;-1.948;2024-03-23T08:46:06;99584.50;;;7.17;69.79
43364;BME280;40636;52.424;-1.948;2024-03-23T08:48:34;99593.09;;;7.30;69.52
43364;BME280;40636;52.424;-1.948;2024-03-23T08:51:05;99581.91;;;7.31;68.47
43364;BME280;40636;52.424;-1.948;2024-03-23T08:53:31;99580.19;;;7.30;68.73
43364;BME280;40636;52.424;-1.948;2024-03-23T08:55:57;99580.16;;;7.32;69.05
43364;BME280;40636;52.424;-1.948;2024-03-23T08:58:24;99581.88;;;7.37;69.29
43364;BME280;40636;52.424;-1.948;2024-03-23T09:00:54;99581.00;;;7.47;68.75
43364;BME280;40636;52.424;-1.948;2024-03-23T09:03:24;99580.13;;;7.54;68.44
43364;BME280;40636;52.424;-1.948;2024-03-23T09:05:51;99575.81;;;7.58;68.23
43364;BME280;40636;52.424;-1.948;2024-03-23T09:08:17;99567.22;;;7.56;67.77
43364;BME280;40636;52.424;-1.948;2024-03-23T09:10:43;99562.88;;;7.59;68.63
43364;BME280;40636;52.424;-1.948;2024-03-23T09:13:09;99567.16;;;7.67;68.49
43364;BME280;40636;52.424;-1.948;2024-03-23T09:15:36;99573.16;;;7.75;67.82
43364;BME280;40636;52.424;-1.948;2024-03-23T09:18:02;99570.59;;;7.72;67.61
43364;BME280;40636;52.424;-1.948;2024-03-23T09:20:28;99579.22;;;7.69;68.55
43364;BME280;40636;52.424;-1.948;2024-03-23T09:22:55;99568.06;;;7.58;69.54
43364;BME280;40636;52.424;-1.948;2024-03-23T09:25:22;99567.22;;;7.41;70.17
43364;BME280;40636;52.424;-1.948;2024-03-23T09:27:51;99573.31;;;7.24;71.39
43364;BME280;40636;52.424;-1.948;2024-03-23T09:30:18;99573.34;;;7.08;72.21
43364;BME280;40636;52.424;-1.948;2024-03-23T09:32:46;99574.19;;;7.05;73.00
43364;BME280;40636;52.424;-1.948;2024-03-23T09:35:13;99573.34;;;7.06;73.21
43364;BME280;40636;52.424;-1.948;2024-03-23T09:37:39;99563.00;;;7.06;73.68
43364;BME280;40636;52.424;-1.948;2024-03-23T09:40:11;99571.63;;;7.02;74.07
43364;BME280;40636;52.424;-1.948;2024-03-23T09:42:38;99568.19;;;6.98;73.85
43364;BME280;40636;52.424;-1.948;2024-03-23T09:45:16;99566.47;;;6.97;74.54
43364;BME280;40636;52.424;-1.948;2024-03-23T09:47:42;99553.56;;;6.96;74.29
43364;BME280;40636;52.424;-1.948;2024-03-23T09:50:09;99566.47;;;6.99;74.98
43364;BME280;40636;52.424;-1.948;2024-03-23T09:52:35;99561.31;;;6.97;74.48
43364;BME280;40636;52.424;-1.948;2024-03-23T09:55:00;99569.06;;;6.96;74.57
43364;BME280;40636;52.424;-1.948;2024-03-23T09:57:26;99552.69;;;7.02;73.99
43364;BME280;40636;52.424;-1.948;2024-03-23T09:59:52;99555.25;;;7.11;74.05
43364;BME280;40636;52.424;-1.948;2024-03-23T10:02:21;99549.22;;;7.18;73.85
43364;BME280;40636;52.424;-1.948;2024-03-23T10:04:46;99550.88;;;7.34;73.88
43364;BME280;40636;52.424;-1.948;2024-03-23T10:07:18;99543.94;;;7.45;73.22
43364;BME280;40636;52.424;-1.948;2024-03-23T10:09:45;99530.13;;;7.61;73.01
43364;BME280;40636;52.424;-1.948;2024-03-23T10:12:12;99521.44;;;7.75;73.05
43364;BME280;40636;52.424;-1.948;2024-03-23T10:14:40;99524.84;;;7.84;72.97
43364;BME280;40636;52.424;-1.948;2024-03-23T10:17:15;99540.34;;;7.86;71.58
43364;BME280;40636;52.424;-1.948;2024-03-23T10:19:49;99518.03;;;7.73;72.15
43364;BME280;40636;52.424;-1.948;2024-03-23T10:22:18;99531.88;;;7.50;71.79
43364;BME280;40636;52.424;-1.948;2024-03-23T10:24:44;99535.38;;;7.40;72.97
43364;BME280;40636;52.424;-1.948;2024-03-23T10:27:15;99531.00;;;7.50;73.03
43364;BME280;40636;52.424;-1.948;2024-03-23T10:29:42;99525.78;;;7.68;73.61
43364;BME280;40636;52.424;-1.948;2024-03-23T10:32:11;99529.13;;;7.88;72.63
43364;BME280;40636;52.424;-1.948;2024-03-23T10:34:37;99512.66;;;8.03;71.89
43364;BME280;40636;52.424;-1.948;2024-03-23T10:37:04;99513.50;;;8.13;71.32
43364;BME280;40636;52.424;-1.948;2024-03-23T10:39:32;99527.28;;;8.13;70.15
43364;BME280;40636;52.424;-1.948;2024-03-23T10:42:02;99512.66;;;8.05;70.17
43364;BME280;40636;52.424;-1.948;2024-03-23T10:44:28;99524.78;;;7.93;69.61
43364;BME280;40636;52.424;-1.948;2024-03-23T10:47:00;99510.16;;;7.88;70.32
43364;BME280;40636;52.424;-1.948;2024-03-23T10:49:33;99514.50;;;7.84;70.64
43364;BME280;40636;52.424;-1.948;2024-03-23T10:52:03;99526.66;;;7.69;71.28
43364;BME280;40636;52.424;-1.948;2024-03-23T10:54:31;99516.38;;;7.59;71.49
43364;BME280;40636;52.424;-1.948;2024-03-23T10:57:02;99529.28;;;7.58;71.78
43364;BME280;40636;52.424;-1.948;2024-03-23T10:59:29;99537.91;;;7.48;72.29
43364;BME280;40636;52.424;-1.948;2024-03-23T11:01:57;99522.44;;;7.42;72.14
43364;BME280;40636;52.424;-1.948;2024-03-23T11:06:56;99542.25;;;7.41;71.88
43364;BME280;40636;52.424;-1.948;2024-03-23T11:14:47;99518.06;;;7.67;71.57
43364;BME280;40636;52.424;-1.948;2024-03-23T11:17:19;99510.28;;;7.71;70.99
43364;BME280;40636;52.424;-1.948;2024-03-23T11:19:53;99513.69;;;7.78;70.92
43364;BME280;40636;52.424;-1.948;2024-03-23T11:22:42;99523.91;;;7.96;71.36
43364;BME280;40636;52.424;-1.948;2024-03-23T11:27:58;99517.72;;;8.26;70.23
43364;BME280;40636;52.424;-1.948;2024-03-23T11:30:27;99502.16;;;8.31;70.12
43364;BME280;40636;52.424;-1.948;2024-03-23T11:32:58;99511.69;;;8.25;69.65
43364;BME280;40636;52.424;-1.948;2024-03-23T11:35:30;99515.19;;;8.17;69.94
43364;BME280;40636;52.424;-1.948;2024-03-23T11:38:04;99515.09;;;8.34;70.86
43364;BME280;40636;52.424;-1.948;2024-03-23T11:40:31;99509.03;;;8.38;70.12
43364;BME280;40636;52.424;-1.948;2024-03-23T11:43:05;99513.34;;;8.37;69.30
43364;BME280;40636;52.424;-1.948;2024-03-23T11:45:36;99508.97;;;8.45;70.23
43364;BME280;40636;52.424;-1.948;2024-03-23T11:50:33;99492.56;;;8.48;69.49
43364;BME280;40636;52.424;-1.948;2024-03-23T11:53:27;99502.94;;;8.43;68.59
43364;BME280;40636;52.424;-1.948;2024-03-23T11:55:58;99501.22;;;8.42;69.05
43364;BME280;40636;52.424;-1.948;2024-03-23T11:58:26;99511.50;;;8.50;69.09
43364;BME280;40636;52.424;-1.948;2024-03-23T12:00:59;99496.72;;;8.63;69.08
43364;BME280;40636;52.424;-1.948;2024-03-23T12:03:26;99493.97;;;8.82;69.37
43364;BME280;40636;52.424;-1.948;2024-03-23T12:05:58;99492.91;;;9.02;68.53
43364;BME280;40636;52.424;-1.948;2024-03-23T12:08:30;99475.72;;;8.96;67.72
43364;BME280;40636;52.424;-1.948;2024-03-23T12:11:06;99474.78;;;9.02;67.56
43364;BME280;40636;52.424;-1.948;2024-03-23T12:13:33;99460.91;;;9.06;66.61
43364;BME280;40636;52.424;-1.948;2024-03-23T12:18:41;99466.13;;;9.03;67.16
43364;BME280;40636;52.424;-1.948;2024-03-23T12:21:08;99465.25;;;9.04;67.13
43364;BME280;40636;52.424;-1.948;2024-03-23T12:23:35;99470.50;;;8.98;67.32
43364;BME280;40636;52.424;-1.948;2024-03-23T12:26:00;99468.06;;;8.84;67.46
43364;BME280;40636;52.424;-1.948;2024-03-23T12:28:27;99465.63;;;8.69;68.55
43364;BME280;40636;52.424;-1.948;2024-03-23T12:30:53;99497.69;;;8.54;68.85
43364;BME280;40636;52.424;-1.948;2024-03-23T12:33:20;99524.59;;;8.29;69.77
43364;BME280;40636;52.424;-1.948;2024-03-23T12:35:45;99533.44;;;7.91;70.89
43364;BME280;40636;52.424;-1.948;2024-03-23T12:38:11;99501.75;;;7.52;71.32
43364;BME280;40636;52.424;-1.948;2024-03-23T12:40:37;99469.06;;;7.36;72.61
43364;BME280;40636;52.424;-1.948;2024-03-23T12:43:02;99463.03;;;7.37;72.91
43364;BME280;40636;52.424;-1.948;2024-03-23T12:45:28;99452.69;;;7.37;73.09
43364;BME280;40636;52.424;-1.948;2024-03-23T12:47:54;99446.66;;;7.38;72.51
43364;BME280;40636;52.424;-1.948;2024-03-23T12:50:20;99438.06;;;7.33;72.82
43364;BME280;40636;52.424;-1.948;2024-03-23T12:52:46;99449.25;;;7.35;73.45
43364;BME280;40636;52.424;-1.948;2024-03-23T12:55:11;99477.66;;;7.37;73.47
43364;BME280;40636;52.424;-1.948;2024-03-23T12:57:37;99476.00;;;7.23;73.20
43364;BME280;40636;52.424;-1.948;2024-03-23T13:00:03;99473.47;;;7.10;74.06
43364;BME280;40636;52.424;-1.948;2024-03-23T13:02:30;99481.25;;;6.82;73.79
43364;BME280;40636;52.424;-1.948;2024-03-23T13:04:56;99495.06;;;6.54;73.84
43364;BME280;40636;52.424;-1.948;2024-03-23T13:07:22;99485.59;;;6.22;73.43
43364;BME280;40636;52.424;-1.948;2024-03-23T13:09:52;99492.47;;;6.08;74.09
43364;BME280;40636;52.424;-1.948;2024-03-23T13:12:19;99474.41;;;6.00;74.64
43364;BME280;40636;52.424;-1.948;2024-03-23T13:14:46;99461.53;;;6.08;75.43
43364;BME280;40636;52.424;-1.948;2024-03-23T13:17:12;99458.09;;;6.15;75.46
43364;BME280;40636;52.424;-1.948;2024-03-23T13:19:38;99458.09;;;6.24;75.95
43364;BME280;40636;52.424;-1.948;2024-03-23T13:22:04;99461.53;;;6.31;75.86
43364;BME280;40636;52.424;-1.948;2024-03-23T13:24:30;99452.91;;;6.32;75.42
43364;BME280;40636;52.424;-1.948;2024-03-23T13:26:56;99464.13;;;6.37;75.52
43364;BME280;40636;52.424;-1.948;2024-03-23T13:29:23;99449.50;;;6.42;75.42
43364;BME280;40636;52.424;-1.948;2024-03-23T13:31:50;99455.50;;;6.49;75.25
43364;BME280;40636;52.424;-1.948;2024-03-23T13:34:16;99471.00;;;6.50;74.24
43364;BME280;40636;52.424;-1.948;2024-03-23T13:36:42;99457.22;;;6.54;73.44
43364;BME280;40636;52.424;-1.948;2024-03-23T13:39:09;99455.50;;;6.58;73.38
43364;BME280;40636;52.424;-1.948;2024-03-23T13:41:45;99452.91;;;6.65;72.68
43364;BME280;40636;52.424;-1.948;2024-03-23T13:44:12;99446.00;;;6.72;72.61
43364;BME280;40636;52.424;-1.948;2024-03-23T13:46:38;99452.88;;;6.76;72.73
43364;BME280;40636;52.424;-1.948;2024-03-23T13:49:05;99455.44;;;6.84;71.78
43364;BME280;40636;52.424;-1.948;2024-03-23T13:51:32;99440.78;;;6.93;71.59
43364;BME280;40636;52.424;-1.948;2024-03-23T13:53:57;99444.25;;;6.94;70.67
43364;BME280;40636;52.424;-1.948;2024-03-23T13:56:27;99438.22;;;6.93;70.77
43364;BME280;40636;52.424;-1.948;2024-03-23T13:58:56;99445.09;;;6.91;70.92
43364;BME280;40636;52.424;-1.948;2024-03-23T14:01:23;99435.63;;;6.93;70.38
43364;BME280;40636;52.424;-1.948;2024-03-23T14:03:49;99432.19;;;6.97;70.01
43364;BME280;40636;52.424;-1.948;2024-03-23T14:06:15;99439.94;;;6.99;69.61
43364;BME280;40636;52.424;-1.948;2024-03-23T14:08:41;99433.03;;;7.03;67.85